sensor_id;sensor_type;location;lat;lon;timestamp;temperature;humidity
46139;DHT22;32398;49.112;8.598;2023-04-24T00:00:59;14.00;82.80
46139;DHT22;32398;49.112;8.598;2023-04-24T00:03:27;14.00;82.70
46139;DHT22;32398;49.112;8.598;2023-04-24T00:05:54;14.00;82.70
46139;DHT22;32398;49.112;8.598;2023-04-24T00:08:21;14.00;82.80
46139;DHT22;32398;49.112;8.598;2023-04-24T00:10:49;13.90;82.70
46139;DHT22;32398;49.112;8.598;2023-04-24T00:13:15;14.00;82.60
46139;DHT22;32398;49.112;8.598;2023-04-24T00:15:43;14.00;82.70
46139;DHT22;32398;49.112;8.598;2023-04-24T00:18:10;13.90;82.70
46139;DHT22;32398;49.112;8.598;2023-04-24T00:20:36;13.90;82.80
46139;DHT22;32398;49.112;8.598;2023-04-24T00:23:03;13.90;82.80
46139;DHT22;32398;49.112;8.598;2023-04-24T00:25:29;13.90;82.90
46139;DHT22;32398;49.112;8.598;2023-04-24T00:27:56;13.90;82.90
46139;DHT22;32398;49.112;8.598;2023-04-24T00:30:22;13.90;82.90
46139;DHT22;32398;49.112;8.598;2023-04-24T00:32:50;13.80;82.80
46139;DHT22;32398;49.112;8.598;2023-04-24T00:35:17;13.80;82.90
46139;DHT22;32398;49.112;8.598;2023-04-24T00:37:45;13.80;82.80
46139;DHT22;32398;49.112;8.598;2023-04-24T00:40:11;13.80;82.80
46139;DHT22;32398;49.112;8.598;2023-04-24T00:42:38;13.80;82.90
46139;DHT22;32398;49.112;8.598;2023-04-24T00:45:05;13.70;82.80
46139;DHT22;32398;49.112;8.598;2023-04-24T00:47:32;13.80;83.00
46139;DHT22;32398;49.112;8.598;2023-04-24T00:50:01;13.80;82.90
46139;DHT22;32398;49.112;8.598;2023-04-24T00:52:28;13.80;82.90
46139;DHT22;32398;49.112;8.598;2023-04-24T00:54:56;13.70;82.90
46139;DHT22;32398;49.112;8.598;2023-04-24T00:57:22;13.80;83.00
46139;DHT22;32398;49.112;8.598;2023-04-24T00:59:49;13.70;82.90
46139;DHT22;32398;49.112;8.598;2023-04-24T01:02:16;13.70;82.90
46139;DHT22;32398;49.112;8.598;2023-04-24T01:04:43;13.70;82.90
46139;DHT22;32398;49.112;8.598;2023-04-24T01:07:11;13.70;82.90
46139;DHT22;32398;49.112;8.598;2023-04-24T01:09:38;13.70;82.90
46139;DHT22;32398;49.112;8.598;2023-04-24T01:12:06;13.60;82.90
46139;DHT22;32398;49.112;8.598;2023-04-24T01:14:32;13.70;83.00
46139;DHT22;32398;49.112;8.598;2023-04-24T01:16:59;13.70;83.00
46139;DHT22;32398;49.112;8.598;2023-04-24T01:19:26;13.60;83.00
46139;DHT22;32398;49.112;8.598;2023-04-24T01:21:53;13.60;83.10
46139;DHT22;32398;49.112;8.598;2023-04-24T01:24:22;13.60;83.00
46139;DHT22;32398;49.112;8.598;2023-04-24T01:26:48;13.60;83.00
46139;DHT22;32398;49.112;8.598;2023-04-24T01:29:15;13.60;83.00
46139;DHT22;32398;49.112;8.598;2023-04-24T01:31:41;13.60;83.00
46139;DHT22;32398;49.112;8.598;2023-04-24T01:34:08;13.60;83.10
46139;DHT22;32398;49.112;8.598;2023-04-24T01:36:35;13.50;83.00
46139;DHT22;32398;49.112;8.598;2023-04-24T01:39:02;13.60;83.10
46139;DHT22;32398;49.112;8.598;2023-04-24T01:41:30;13.50;83.10
46139;DHT22;32398;49.112;8.598;2023-04-24T01:43:57;13.50;83.10
46139;DHT22;32398;49.112;8.598;2023-04-24T01:46:24;13.50;83.00
46139;DHT22;32398;49.112;8.598;2023-04-24T01:48:51;13.50;83.10
46139;DHT22;32398;49.112;8.598;2023-04-24T01:51:18;13.50;83.10
46139;DHT22;32398;49.112;8.598;2023-04-24T01:53:44;13.50;83.10
46139;DHT22;32398;49.112;8.598;2023-04-24T01:56:11;13.50;83.20
46139;DHT22;32398;49.112;8.598;2023-04-24T01:58:39;13.50;83.20
46139;DHT22;32398;49.112;8.598;2023-04-24T02:01:06;13.50;83.20
46139;DHT22;32398;49.112;8.598;2023-04-24T02:03:32;13.50;83.30
46139;DHT22;32398;49.112;8.598;2023-04-24T02:05:59;13.40;83.20
46139;DHT22;32398;49.112;8.598;2023-04-24T02:08:26;13.40;83.30
46139;DHT22;32398;49.112;8.598;2023-04-24T02:10:52;13.40;83.40
46139;DHT22;32398;49.112;8.598;2023-04-24T02:13:19;13.40;83.40
46139;DHT22;32398;49.112;8.598;2023-04-24T02:15:47;13.40;83.50
46139;DHT22;32398;49.112;8.598;2023-04-24T02:18:13;13.40;83.60
46139;DHT22;32398;49.112;8.598;2023-04-24T02:20:40;13.40;83.60
46139;DHT22;32398;49.112;8.598;2023-04-24T02:23:07;13.40;83.70
46139;DHT22;32398;49.112;8.598;2023-04-24T02:25:33;13.30;83.70
46139;DHT22;32398;49.112;8.598;2023-04-24T02:28:00;13.30;83.80
46139;DHT22;32398;49.112;8.598;2023-04-24T02:30:27;13.30;83.90
46139;DHT22;32398;49.112;8.598;2023-04-24T02:32:55;13.30;83.90
46139;DHT22;32398;49.112;8.598;2023-04-24T02:35:22;13.30;84.00
46139;DHT22;32398;49.112;8.598;2023-04-24T02:37:48;13.30;84.10
46139;DHT22;32398;49.112;8.598;2023-04-24T02:40:15;13.20;84.10
46139;DHT22;32398;49.112;8.598;2023-04-24T02:42:41;13.30;84.30
46139;DHT22;32398;49.112;8.598;2023-04-24T02:45:08;13.20;84.30
46139;DHT22;32398;49.112;8.598;2023-04-24T02:47:35;13.20;84.40
46139;DHT22;32398;49.112;8.598;2023-04-24T02:50:03;13.20;84.50
46139;DHT22;32398;49.112;8.598;2023-04-24T02:52:30;13.20;84.60
46139;DHT22;32398;49.112;8.598;2023-04-24T02:54:56;13.20;84.70
46139;DHT22;32398;49.112;8.598;2023-04-24T02:57:23;13.20;84.80
46139;DHT22;32398;49.112;8.598;2023-04-24T02:59:49;13.10;84.80
46139;DHT22;32398;49.112;8.598;2023-04-24T03:02:16;13.20;85.00
46139;DHT22;32398;49.112;8.598;2023-04-24T03:04:42;13.20;85.10
46139;DHT22;32398;49.112;8.598;2023-04-24T03:07:12;13.20;85.20
46139;DHT22;32398;49.112;8.598;2023-04-24T03:09:39;13.10;85.30
46139;DHT22;32398;49.112;8.598;2023-04-24T03:12:06;13.10;85.40
46139;DHT22;32398;49.112;8.598;2023-04-24T03:14:32;13.10;85.60
46139;DHT22;32398;49.112;8.598;2023-04-24T03:17:00;13.10;85.80
46139;DHT22;32398;49.112;8.598;2023-04-24T03:19:26;13.10;86.00
46139;DHT22;32398;49.112;8.598;2023-04-24T03:21:53;13.10;86.10
46139;DHT22;32398;49.112;8.598;2023-04-24T03:24:21;13.10;86.30
46139;DHT22;32398;49.112;8.598;2023-04-24T03:26:47;13.10;86.50
46139;DHT22;32398;49.112;8.598;2023-04-24T03:29:14;13.10;86.70
46139;DHT22;32398;49.112;8.598;2023-04-24T03:31:40;13.10;86.90
46139;DHT22;32398;49.112;8.598;2023-04-24T03:34:07;13.00;87.10
46139;DHT22;32398;49.112;8.598;2023-04-24T03:36:33;13.00;87.30
46139;DHT22;32398;49.112;8.598;2023-04-24T03:39:00;13.00;87.30
46139;DHT22;32398;49.112;8.598;2023-04-24T03:41:28;13.00;87.40
46139;DHT22;32398;49.112;8.598;2023-04-24T03:43:55;13.00;87.40
46139;DHT22;32398;49.112;8.598;2023-04-24T03:46:21;13.00;87.40
46139;DHT22;32398;49.112;8.598;2023-04-24T03:48:48;13.00;87.40
46139;DHT22;32398;49.112;8.598;2023-04-24T03:51:15;12.90;87.40
46139;DHT22;32398;49.112;8.598;2023-04-24T03:53:41;12.90;87.40
46139;DHT22;32398;49.112;8.598;2023-04-24T03:56:08;12.90;87.40
46139;DHT22;32398;49.112;8.598;2023-04-24T03:58:36;12.90;87.50
46139;DHT22;32398;49.112;8.598;2023-04-24T04:01:02;12.90;87.50
46139;DHT22;32398;49.112;8.598;2023-04-24T04:03:29;12.80;87.50
46139;DHT22;32398;49.112;8.598;2023-04-24T04:05:55;12.90;87.60
46139;DHT22;32398;49.112;8.598;2023-04-24T04:08:22;12.80;87.60
46139;DHT22;32398;49.112;8.598;2023-04-24T04:10:48;12.80;87.70
46139;DHT22;32398;49.112;8.598;2023-04-24T04:13:15;12.80;87.70
46139;DHT22;32398;49.112;8.598;2023-04-24T04:15:43;12.80;87.80
46139;DHT22;32398;49.112;8.598;2023-04-24T04:18:09;12.70;87.80
46139;DHT22;32398;49.112;8.598;2023-04-24T04:20:36;12.70;87.90
46139;DHT22;32398;49.112;8.598;2023-04-24T04:23:03;12.70;88.10
46139;DHT22;32398;49.112;8.598;2023-04-24T04:25:29;12.70;88.10
46139;DHT22;32398;49.112;8.598;2023-04-24T04:27:56;12.70;88.10
46139;DHT22;32398;49.112;8.598;2023-04-24T04:30:24;12.60;88.10
46139;DHT22;32398;49.112;8.598;2023-04-24T04:32:52;12.60;88.20
46139;DHT22;32398;49.112;8.598;2023-04-24T04:35:19;12.60;88.20
46139;DHT22;32398;49.112;8.598;2023-04-24T04:37:45;12.60;88.30
46139;DHT22;32398;49.112;8.598;2023-04-24T04:40:12;12.60;88.40
46139;DHT22;32398;49.112;8.598;2023-04-24T04:42:38;12.50;88.40
46139;DHT22;32398;49.112;8.598;2023-04-24T04:45:06;12.50;88.40
46139;DHT22;32398;49.112;8.598;2023-04-24T04:47:34;12.50;88.40
46139;DHT22;32398;49.112;8.598;2023-04-24T04:50:02;12.50;88.50
46139;DHT22;32398;49.112;8.598;2023-04-24T04:52:29;12.50;88.60
46139;DHT22;32398;49.112;8.598;2023-04-24T04:54:55;12.40;88.50
46139;DHT22;32398;49.112;8.598;2023-04-24T04:57:22;12.40;88.10
46139;DHT22;32398;49.112;8.598;2023-04-24T04:59:48;12.20;88.40
46139;DHT22;32398;49.112;8.598;2023-04-24T05:02:15;12.10;89.00
46139;DHT22;32398;49.112;8.598;2023-04-24T05:04:41;12.00;89.20
46139;DHT22;32398;49.112;8.598;2023-04-24T05:07:09;12.00;89.50
46139;DHT22;32398;49.112;8.598;2023-04-24T05:09:36;12.00;89.60
46139;DHT22;32398;49.112;8.598;2023-04-24T05:12:02;12.00;89.70
46139;DHT22;32398;49.112;8.598;2023-04-24T05:14:29;12.00;89.70
46139;DHT22;32398;49.112;8.598;2023-04-24T05:16:56;12.00;89.80
46139;DHT22;32398;49.112;8.598;2023-04-24T05:19:22;12.00;89.80
46139;DHT22;32398;49.112;8.598;2023-04-24T05:21:49;12.00;89.80
46139;DHT22;32398;49.112;8.598;2023-04-24T05:24:16;11.90;89.80
46139;DHT22;32398;49.112;8.598;2023-04-24T05:26:43;12.00;89.80
46139;DHT22;32398;49.112;8.598;2023-04-24T05:29:10;11.90;89.80
46139;DHT22;32398;49.112;8.598;2023-04-24T05:31:37;12.00;89.90
46139;DHT22;32398;49.112;8.598;2023-04-24T05:34:03;11.90;89.80
46139;DHT22;32398;49.112;8.598;2023-04-24T05:36:30;11.90;89.80
46139;DHT22;32398;49.112;8.598;2023-04-24T05:38:57;11.90;89.90
46139;DHT22;32398;49.112;8.598;2023-04-24T05:41:25;11.90;90.00
46139;DHT22;32398;49.112;8.598;2023-04-24T05:43:52;11.90;90.00
46139;DHT22;32398;49.112;8.598;2023-04-24T05:46:18;11.90;90.00
46139;DHT22;32398;49.112;8.598;2023-04-24T05:48:45;11.90;90.00
46139;DHT22;32398;49.112;8.598;2023-04-24T05:51:12;11.90;90.40
46139;DHT22;32398;49.112;8.598;2023-04-24T05:53:38;11.90;90.10
46139;DHT22;32398;49.112;8.598;2023-04-24T05:56:05;11.90;90.10
46139;DHT22;32398;49.112;8.598;2023-04-24T05:58:33;11.90;90.10
46139;DHT22;32398;49.112;8.598;2023-04-24T06:00:59;11.90;90.10
46139;DHT22;32398;49.112;8.598;2023-04-24T06:03:27;11.90;90.10
46139;DHT22;32398;49.112;8.598;2023-04-24T06:05:53;11.90;90.50
46139;DHT22;32398;49.112;8.598;2023-04-24T06:08:20;11.90;90.10
46139;DHT22;32398;49.112;8.598;2023-04-24T06:10:46;11.80;90.10
46139;DHT22;32398;49.112;8.598;2023-04-24T06:13:13;11.80;90.10
46139;DHT22;32398;49.112;8.598;2023-04-24T06:15:41;11.80;90.10
46139;DHT22;32398;49.112;8.598;2023-04-24T06:18:07;11.80;90.10
46139;DHT22;32398;49.112;8.598;2023-04-24T06:20:35;11.80;90.10
46139;DHT22;32398;49.112;8.598;2023-04-24T06:23:02;11.80;90.20
46139;DHT22;32398;49.112;8.598;2023-04-24T06:25:28;11.80;90.10
46139;DHT22;32398;49.112;8.598;2023-04-24T06:27:55;11.70;90.10
46139;DHT22;32398;49.112;8.598;2023-04-24T06:30:21;11.70;90.00
46139;DHT22;32398;49.112;8.598;2023-04-24T06:32:50;11.70;90.00
46139;DHT22;32398;49.112;8.598;2023-04-24T06:35:16;11.70;90.00
46139;DHT22;32398;49.112;8.598;2023-04-24T06:37:43;11.70;90.30
46139;DHT22;32398;49.112;8.598;2023-04-24T06:40:10;11.70;89.90
46139;DHT22;32398;49.112;8.598;2023-04-24T06:42:36;11.70;89.60
46139;DHT22;32398;49.112;8.598;2023-04-24T06:45:03;11.60;89.30
46139;DHT22;32398;49.112;8.598;2023-04-24T06:47:31;11.60;89.20
46139;DHT22;32398;49.112;8.598;2023-04-24T06:49:59;11.60;88.90
46139;DHT22;32398;49.112;8.598;2023-04-24T06:52:25;11.60;88.80
46139;DHT22;32398;49.112;8.598;2023-04-24T06:54:52;11.60;88.70
46139;DHT22;32398;49.112;8.598;2023-04-24T06:57:18;11.60;88.60
46139;DHT22;32398;49.112;8.598;2023-04-24T06:59:45;11.60;88.50
46139;DHT22;32398;49.112;8.598;2023-04-24T07:02:12;11.60;88.30
46139;DHT22;32398;49.112;8.598;2023-04-24T07:04:38;11.60;88.20
46139;DHT22;32398;49.112;8.598;2023-04-24T07:07:06;11.60;88.10
46139;DHT22;32398;49.112;8.598;2023-04-24T07:09:34;11.60;87.90
46139;DHT22;32398;49.112;8.598;2023-04-24T07:12:04;11.60;87.60
46139;DHT22;32398;49.112;8.598;2023-04-24T07:14:30;11.60;87.50
46139;DHT22;32398;49.112;8.598;2023-04-24T07:16:57;11.60;87.50
46139;DHT22;32398;49.112;8.598;2023-04-24T07:19:23;11.60;87.40
46139;DHT22;32398;49.112;8.598;2023-04-24T07:21:50;11.60;87.10
46139;DHT22;32398;49.112;8.598;2023-04-24T07:24:18;11.60;87.10
46139;DHT22;32398;49.112;8.598;2023-04-24T07:26:44;11.60;86.80
46139;DHT22;32398;49.112;8.598;2023-04-24T07:29:12;11.60;86.60
46139;DHT22;32398;49.112;8.598;2023-04-24T07:31:38;11.60;86.30
46139;DHT22;32398;49.112;8.598;2023-04-24T07:34:06;11.60;86.30
46139;DHT22;32398;49.112;8.598;2023-04-24T07:36:32;11.60;85.90
46139;DHT22;32398;49.112;8.598;2023-04-24T07:38:59;11.60;85.90
46139;DHT22;32398;49.112;8.598;2023-04-24T07:41:27;11.60;85.80
46139;DHT22;32398;49.112;8.598;2023-04-24T07:43:53;11.70;85.90
46139;DHT22;32398;49.112;8.598;2023-04-24T07:46:20;11.60;85.80
46139;DHT22;32398;49.112;8.598;2023-04-24T07:48:48;11.60;85.50
46139;DHT22;32398;49.112;8.598;2023-04-24T07:51:15;11.60;85.50
46139;DHT22;32398;49.112;8.598;2023-04-24T07:53:42;11.60;85.50
46139;DHT22;32398;49.112;8.598;2023-04-24T07:56:09;11.70;85.50
46139;DHT22;32398;49.112;8.598;2023-04-24T07:58:36;11.70;85.40
46139;DHT22;32398;49.112;8.598;2023-04-24T08:01:03;11.70;85.20
46139;DHT22;32398;49.112;8.598;2023-04-24T08:03:30;11.70;85.20
46139;DHT22;32398;49.112;8.598;2023-04-24T08:05:56;11.70;85.20
46139;DHT22;32398;49.112;8.598;2023-04-24T08:08:23;11.70;85.10
46139;DHT22;32398;49.112;8.598;2023-04-24T08:10:50;11.70;84.90
46139;DHT22;32398;49.112;8.598;2023-04-24T08:13:16;11.60;84.80
46139;DHT22;32398;49.112;8.598;2023-04-24T08:15:44;11.70;84.80
46139;DHT22;32398;49.112;8.598;2023-04-24T08:18:11;11.70;84.80
46139;DHT22;32398;49.112;8.598;2023-04-24T08:20:38;11.70;84.70
46139;DHT22;32398;49.112;8.598;2023-04-24T08:23:05;11.60;84.70
46139;DHT22;32398;49.112;8.598;2023-04-24T08:25:31;11.60;84.80
46139;DHT22;32398;49.112;8.598;2023-04-24T08:28:01;11.70;84.90
46139;DHT22;32398;49.112;8.598;2023-04-24T08:30:28;11.70;84.70
46139;DHT22;32398;49.112;8.598;2023-04-24T08:32:56;11.60;84.50
46139;DHT22;32398;49.112;8.598;2023-04-24T08:35:22;11.70;84.40
46139;DHT22;32398;49.112;8.598;2023-04-24T08:37:49;11.70;84.50
46139;DHT22;32398;49.112;8.598;2023-04-24T08:40:16;11.70;84.40
46139;DHT22;32398;49.112;8.598;2023-04-24T08:42:43;11.70;84.40
46139;DHT22;32398;49.112;8.598;2023-04-24T08:45:10;11.70;84.00
46139;DHT22;32398;49.112;8.598;2023-04-24T08:47:37;11.80;83.70
46139;DHT22;32398;49.112;8.598;2023-04-24T08:50:06;11.80;83.50
46139;DHT22;32398;49.112;8.598;2023-04-24T08:52:33;11.80;83.10
46139;DHT22;32398;49.112;8.598;2023-04-24T08:54:59;11.80;82.80
46139;DHT22;32398;49.112;8.598;2023-04-24T08:57:26;11.90;82.50
46139;DHT22;32398;49.112;8.598;2023-04-24T08:59:53;11.90;82.20
46139;DHT22;32398;49.112;8.598;2023-04-24T09:02:20;11.90;82.10
46139;DHT22;32398;49.112;8.598;2023-04-24T09:04:47;12.00;81.80
46139;DHT22;32398;49.112;8.598;2023-04-24T09:07:15;12.00;81.20
46139;DHT22;32398;49.112;8.598;2023-04-24T09:09:43;12.10;80.50
46139;DHT22;32398;49.112;8.598;2023-04-24T09:12:10;12.10;80.10
46139;DHT22;32398;49.112;8.598;2023-04-24T09:14:36;12.20;80.10
46139;DHT22;32398;49.112;8.598;2023-04-24T09:17:07;12.20;79.80
46139;DHT22;32398;49.112;8.598;2023-04-24T09:19:34;12.20;79.20
46139;DHT22;32398;49.112;8.598;2023-04-24T09:22:01;12.30;79.10
46139;DHT22;32398;49.112;8.598;2023-04-24T09:24:32;12.30;78.90
46139;DHT22;32398;49.112;8.598;2023-04-24T09:26:58;12.30;78.80
46139;DHT22;32398;49.112;8.598;2023-04-24T09:29:26;12.30;78.40
46139;DHT22;32398;49.112;8.598;2023-04-24T09:31:53;12.30;78.40
46139;DHT22;32398;49.112;8.598;2023-04-24T09:34:20;12.30;78.70
46139;DHT22;32398;49.112;8.598;2023-04-24T09:36:47;12.30;78.70
46139;DHT22;32398;49.112;8.598;2023-04-24T09:39:14;12.20;78.70
46139;DHT22;32398;49.112;8.598;2023-04-24T09:41:46;12.30;79.00
46139;DHT22;32398;49.112;8.598;2023-04-24T09:44:13;12.20;78.40
46139;DHT22;32398;49.112;8.598;2023-04-24T09:46:40;12.20;78.40
46139;DHT22;32398;49.112;8.598;2023-04-24T09:49:08;12.20;79.40
46139;DHT22;32398;49.112;8.598;2023-04-24T09:51:35;12.20;78.80
46139;DHT22;32398;49.112;8.598;2023-04-24T09:54:03;12.20;78.90
46139;DHT22;32398;49.112;8.598;2023-04-24T09:56:32;12.20;78.90
46139;DHT22;32398;49.112;8.598;2023-04-24T09:59:05;12.10;78.40
46139;DHT22;32398;49.112;8.598;2023-04-24T10:01:32;12.20;78.20
46139;DHT22;32398;49.112;8.598;2023-04-24T10:03:59;12.10;78.10
46139;DHT22;32398;49.112;8.598;2023-04-24T10:06:29;12.10;78.10
46139;DHT22;32398;49.112;8.598;2023-04-24T10:08:57;12.10;78.10
46139;DHT22;32398;49.112;8.598;2023-04-24T10:11:23;12.20;77.80
46139;DHT22;32398;49.112;8.598;2023-04-24T10:13:50;12.20;77.60
46139;DHT22;32398;49.112;8.598;2023-04-24T10:16:18;12.30;77.40
46139;DHT22;32398;49.112;8.598;2023-04-24T10:18:45;12.30;77.30
46139;DHT22;32398;49.112;8.598;2023-04-24T10:21:12;12.40;76.90
46139;DHT22;32398;49.112;8.598;2023-04-24T10:23:39;12.50;76.00
46139;DHT22;32398;49.112;8.598;2023-04-24T10:26:05;12.50;75.20
46139;DHT22;32398;49.112;8.598;2023-04-24T10:28:32;12.60;75.10
46139;DHT22;32398;49.112;8.598;2023-04-24T10:31:00;12.60;74.90
46139;DHT22;32398;49.112;8.598;2023-04-24T10:33:28;12.60;74.80
46139;DHT22;32398;49.112;8.598;2023-04-24T10:35:55;12.70;74.90
46139;DHT22;32398;49.112;8.598;2023-04-24T10:38:24;12.60;74.80
46139;DHT22;32398;49.112;8.598;2023-04-24T10:40:51;12.60;74.90
46139;DHT22;32398;49.112;8.598;2023-04-24T10:43:17;12.60;75.00
46139;DHT22;32398;49.112;8.598;2023-04-24T10:45:59;12.60;75.40
46139;DHT22;32398;49.112;8.598;2023-04-24T10:48:26;12.60;75.80
46139;DHT22;32398;49.112;8.598;2023-04-24T10:50:55;12.60;76.40
46139;DHT22;32398;49.112;8.598;2023-04-24T10:53:22;12.50;76.70
46139;DHT22;32398;49.112;8.598;2023-04-24T10:55:49;12.50;77.00
46139;DHT22;32398;49.112;8.598;2023-04-24T10:58:16;12.50;77.30
46139;DHT22;32398;49.112;8.598;2023-04-24T11:00:55;12.40;77.40
46139;DHT22;32398;49.112;8.598;2023-04-24T11:03:23;12.40;77.70
46139;DHT22;32398;49.112;8.598;2023-04-24T11:05:51;12.40;78.00
46139;DHT22;32398;49.112;8.598;2023-04-24T11:08:24;12.40;78.20
46139;DHT22;32398;49.112;8.598;2023-04-24T11:10:55;12.40;78.40
46139;DHT22;32398;49.112;8.598;2023-04-24T11:13:22;12.40;78.70
46139;DHT22;32398;49.112;8.598;2023-04-24T11:18:36;12.40;79.00
46139;DHT22;32398;49.112;8.598;2023-04-24T11:21:09;12.40;78.70
46139;DHT22;32398;49.112;8.598;2023-04-24T11:23:37;12.50;78.60
46139;DHT22;32398;49.112;8.598;2023-04-24T11:26:10;12.40;78.40
46139;DHT22;32398;49.112;8.598;2023-04-24T11:28:43;12.40;77.90
46139;DHT22;32398;49.112;8.598;2023-04-24T11:33:55;12.40;77.70
46139;DHT22;32398;49.112;8.598;2023-04-24T11:36:22;12.50;77.60
46139;DHT22;32398;49.112;8.598;2023-04-24T11:38:50;12.50;77.40
46139;DHT22;32398;49.112;8.598;2023-04-24T11:41:16;12.40;77.50
46139;DHT22;32398;49.112;8.598;2023-04-24T11:43:44;12.50;77.80
46139;DHT22;32398;49.112;8.598;2023-04-24T11:46:11;12.40;78.10
46139;DHT22;32398;49.112;8.598;2023-04-24T11:48:38;12.40;78.70
46139;DHT22;32398;49.112;8.598;2023-04-24T11:51:11;12.40;79.30
46139;DHT22;32398;49.112;8.598;2023-04-24T11:53:38;12.40;79.80
46139;DHT22;32398;49.112;8.598;2023-04-24T11:56:06;12.40;80.00
46139;DHT22;32398;49.112;8.598;2023-04-24T11:58:34;12.30;80.30
46139;DHT22;32398;49.112;8.598;2023-04-24T12:01:01;12.30;80.50
46139;DHT22;32398;49.112;8.598;2023-04-24T12:03:28;12.40;80.80
46139;DHT22;32398;49.112;8.598;2023-04-24T12:06:04;12.30;80.90
46139;DHT22;32398;49.112;8.598;2023-04-24T12:08:30;12.40;80.90
46139;DHT22;32398;49.112;8.598;2023-04-24T12:10:57;12.40;80.90
46139;DHT22;32398;49.112;8.598;2023-04-24T12:13:26;12.40;80.70
46139;DHT22;32398;49.112;8.598;2023-04-24T12:15:53;12.50;80.70
46139;DHT22;32398;49.112;8.598;2023-04-24T12:18:21;12.50;80.50
46139;DHT22;32398;49.112;8.598;2023-04-24T12:20:48;12.60;80.40
46139;DHT22;32398;49.112;8.598;2023-04-24T12:23:15;12.60;80.30
46139;DHT22;32398;49.112;8.598;2023-04-24T12:25:44;12.70;80.00
46139;DHT22;32398;49.112;8.598;2023-04-24T12:28:11;12.70;79.60
46139;DHT22;32398;49.112;8.598;2023-04-24T12:30:41;12.80;79.20
46139;DHT22;32398;49.112;8.598;2023-04-24T12:33:09;12.80;78.70
46139;DHT22;32398;49.112;8.598;2023-04-24T12:35:36;12.90;78.30
46139;DHT22;32398;49.112;8.598;2023-04-24T12:38:05;12.90;78.00
46139;DHT22;32398;49.112;8.598;2023-04-24T12:40:33;13.00;77.70
46139;DHT22;32398;49.112;8.598;2023-04-24T12:42:59;13.00;77.50
46139;DHT22;32398;49.112;8.598;2023-04-24T12:45:26;13.00;77.40
46139;DHT22;32398;49.112;8.598;2023-04-24T12:47:54;13.00;77.20
46139;DHT22;32398;49.112;8.598;2023-04-24T12:50:21;13.00;76.60
46139;DHT22;32398;49.112;8.598;2023-04-24T12:52:47;13.00;76.70
46139;DHT22;32398;49.112;8.598;2023-04-24T12:55:14;13.00;76.70
46139;DHT22;32398;49.112;8.598;2023-04-24T12:57:40;13.00;76.80
46139;DHT22;32398;49.112;8.598;2023-04-24T13:00:07;13.00;76.90
46139;DHT22;32398;49.112;8.598;2023-04-24T13:02:34;13.00;76.90
46139;DHT22;32398;49.112;8.598;2023-04-24T13:05:03;13.00;76.80
46139;DHT22;32398;49.112;8.598;2023-04-24T13:07:29;13.00;76.50
46139;DHT22;32398;49.112;8.598;2023-04-24T13:09:56;13.00;76.40
46139;DHT22;32398;49.112;8.598;2023-04-24T13:12:23;13.00;76.40
46139;DHT22;32398;49.112;8.598;2023-04-24T13:14:50;13.10;77.00
46139;DHT22;32398;49.112;8.598;2023-04-24T13:17:17;13.10;76.10
46139;DHT22;32398;49.112;8.598;2023-04-24T13:19:43;13.10;75.60
46139;DHT22;32398;49.112;8.598;2023-04-24T13:22:12;13.10;75.40
46139;DHT22;32398;49.112;8.598;2023-04-24T13:24:39;13.10;75.30
46139;DHT22;32398;49.112;8.598;2023-04-24T13:27:06;13.10;75.30
46139;DHT22;32398;49.112;8.598;2023-04-24T13:29:33;13.10;75.00
46139;DHT22;32398;49.112;8.598;2023-04-24T13:32:00;13.10;74.60
46139;DHT22;32398;49.112;8.598;2023-04-24T13:34:26;13.10;74.50
46139;DHT22;32398;49.112;8.598;2023-04-24T13:36:53;13.20;74.40
46139;DHT22;32398;49.112;8.598;2023-04-24T13:39:21;13.20;74.20
46139;DHT22;32398;49.112;8.598;2023-04-24T13:41:48;13.20;74.20
46139;DHT22;32398;49.112;8.598;2023-04-24T13:44:15;13.20;74.40
46139;DHT22;32398;49.112;8.598;2023-04-24T13:46:44;13.30;73.90
46139;DHT22;32398;49.112;8.598;2023-04-24T13:49:11;13.30;73.30
46139;DHT22;32398;49.112;8.598;2023-04-24T13:51:38;13.40;72.90
46139;DHT22;32398;49.112;8.598;2023-04-24T13:54:05;13.40;72.70
46139;DHT22;32398;49.112;8.598;2023-04-24T13:56:33;13.40;72.40
46139;DHT22;32398;49.112;8.598;2023-04-24T13:59:00;13.50;72.30
46139;DHT22;32398;49.112;8.598;2023-04-24T14:01:27;13.50;72.30
46139;DHT22;32398;49.112;8.598;2023-04-24T14:03:54;13.50;72.20
46139;DHT22;32398;49.112;8.598;2023-04-24T14:06:21;13.50;72.00
46139;DHT22;32398;49.112;8.598;2023-04-24T14:08:48;13.50;72.20
46139;DHT22;32398;49.112;8.598;2023-04-24T14:11:15;13.50;72.10
46139;DHT22;32398;49.112;8.598;2023-04-24T14:13:43;13.50;72.20
46139;DHT22;32398;49.112;8.598;2023-04-24T14:16:10;13.50;72.50
46139;DHT22;32398;49.112;8.598;2023-04-24T14:18:37;13.50;72.70
46139;DHT22;32398;49.112;8.598;2023-04-24T14:21:04;13.50;72.70
46139;DHT22;32398;49.112;8.598;2023-04-24T14:23:30;13.50;72.40
46139;DHT22;32398;49.112;8.598;2023-04-24T14:25:57;13.60;72.50
46139;DHT22;32398;49.112;8.598;2023-04-24T14:28:23;13.60;72.20
46139;DHT22;32398;49.112;8.598;2023-04-24T14:30:52;13.60;72.00
46139;DHT22;32398;49.112;8.598;2023-04-24T14:33:19;13.60;71.80
46139;DHT22;32398;49.112;8.598;2023-04-24T14:35:45;13.60;71.50
46139;DHT22;32398;49.112;8.598;2023-04-24T14:38:12;14.10;69.80
46139;DHT22;32398;49.112;8.598;2023-04-24T14:40:39;14.30;68.80
46139;DHT22;32398;49.112;8.598;2023-04-24T14:43:06;14.60;68.20
46139;DHT22;32398;49.112;8.598;2023-04-24T14:45:32;14.80;67.40
46139;DHT22;32398;49.112;8.598;2023-04-24T14:48:01;14.90;67.20
46139;DHT22;32398;49.112;8.598;2023-04-24T14:50:28;15.10;67.30
46139;DHT22;32398;49.112;8.598;2023-04-24T14:52:55;15.20;67.10
46139;DHT22;32398;49.112;8.598;2023-04-24T14:55:22;15.30;66.90
46139;DHT22;32398;49.112;8.598;2023-04-24T14:57:49;15.40;66.90
46139;DHT22;32398;49.112;8.598;2023-04-24T15:00:16;15.50;66.80
46139;DHT22;32398;49.112;8.598;2023-04-24T15:02:43;15.60;66.90
46139;DHT22;32398;49.112;8.598;2023-04-24T15:05:11;15.60;66.80
46139;DHT22;32398;49.112;8.598;2023-04-24T15:07:37;15.60;66.80
46139;DHT22;32398;49.112;8.598;2023-04-24T15:10:04;15.70;66.80
46139;DHT22;32398;49.112;8.598;2023-04-24T15:12:31;15.70;66.50
46139;DHT22;32398;49.112;8.598;2023-04-24T15:14:58;15.60;66.10
46139;DHT22;32398;49.112;8.598;2023-04-24T15:17:25;15.60;65.80
46139;DHT22;32398;49.112;8.598;2023-04-24T15:19:51;15.60;65.60
46139;DHT22;32398;49.112;8.598;2023-04-24T15:22:19;15.50;65.50
46139;DHT22;32398;49.112;8.598;2023-04-24T15:24:46;15.50;65.50
46139;DHT22;32398;49.112;8.598;2023-04-24T15:27:12;15.50;65.60
46139;DHT22;32398;49.112;8.598;2023-04-24T15:29:39;15.50;65.70
46139;DHT22;32398;49.112;8.598;2023-04-24T15:32:06;15.40;65.70
46139;DHT22;32398;49.112;8.598;2023-04-24T15:34:32;15.40;65.70